createdAt,value
2022-08-17T00:01:30.385Z,96464.13
2022-08-17T00:04:11.722Z,96466.06
2022-08-17T00:06:38.920Z,96474.59
2022-08-17T00:09:06.096Z,96468.97
2022-08-17T00:11:37.688Z,96467.31
2022-08-17T00:14:07.925Z,96474.72
2022-08-17T00:16:57.093Z,96474.06
2022-08-17T00:19:26.383Z,96471.59
2022-08-17T00:22:32.410Z,96476.47
2022-08-17T00:24:43.857Z,96475.66
2022-08-17T00:27:12.491Z,96468.72
2022-08-17T00:29:39.682Z,96465.44
2022-08-17T00:33:15.603Z,96466.41
2022-08-17T00:34:54.364Z,96482.84
2022-08-17T00:37:21.616Z,96478.75
2022-08-17T00:39:48.715Z,96477.06
2022-08-17T00:42:19.546Z,96473.41
2022-08-17T00:44:46.662Z,96469.16
2022-08-17T00:47:14.410Z,96473.56
2022-08-17T00:49:42.005Z,96472.25
2022-08-17T00:52:16.466Z,96479.47
2022-08-17T00:54:47.059Z,96478.94
2022-08-17T00:57:18.733Z,96483.56
2022-08-17T01:00:02.343Z,96465.44
2022-08-17T01:02:42.236Z,96484.19
2022-08-17T01:05:25.413Z,96476.59
2022-08-17T01:07:53.929Z,96471.47
2022-08-17T01:11:00.003Z,96475.94
2022-08-17T01:13:17.355Z,96480.50
2022-08-17T01:15:51.341Z,96484.94
2022-08-17T01:18:18.679Z,96485.59
2022-08-17T01:20:49.659Z,96486.06
2022-08-17T01:23:21.253Z,96481.97
2022-08-17T01:25:51.471Z,96471.91
2022-08-17T01:28:33.607Z,96483.56
2022-08-17T01:31:08.087Z,96464.63
2022-08-17T01:33:36.151Z,96477.09
2022-08-17T01:36:06.907Z,96463.28
2022-08-17T01:38:37.297Z,96471.97
2022-08-17T01:41:08.981Z,96476.44
2022-08-17T01:43:43.530Z,96473.13
2022-08-17T01:46:15.795Z,96477.19
2022-08-17T01:48:42.892Z,96484.25
2022-08-17T01:51:10.101Z,96475.03
2022-08-17T01:53:44.616Z,96480.59
2022-08-17T01:56:14.725Z,96479.03
2022-08-17T01:58:42.661Z,96474.94
2022-08-17T02:01:10.976Z,96476.06
2022-08-17T02:03:39.031Z,96476.88
2022-08-17T02:06:27.159Z,96477.56
2022-08-17T02:09:02.487Z,96469.81
2022-08-17T02:11:32.385Z,96472.63
2022-08-17T02:14:02.946Z,96472.91
2022-08-17T02:16:36.797Z,96475.41
2022-08-17T02:19:08.893Z,96473.44
2022-08-17T02:21:37.129Z,96478.19
2022-08-17T02:24:08.671Z,96477.47
2022-08-17T02:26:35.931Z,96469.59
2022-08-17T02:29:03.093Z,96471.72
2022-08-17T02:31:30.245Z,96477.94
2022-08-17T02:34:04.118Z,96472.69
2022-08-17T02:36:33.493Z,96473.81
2022-08-17T02:39:01.404Z,96469.84
2022-08-17T02:41:29.792Z,96477.41
2022-08-17T02:43:56.985Z,96473.44
2022-08-17T02:46:24.041Z,96474.44
2022-08-17T02:48:51.293Z,96474.72
2022-08-17T02:51:18.484Z,96481.25
2022-08-17T02:53:45.586Z,96473.81
2022-08-17T02:56:12.901Z,96474.13
2022-08-17T02:58:41.769Z,96481.19
2022-08-17T03:01:10.413Z,96474.56
2022-08-17T03:03:38.380Z,96475.56
2022-08-17T03:06:07.528Z,96474.06
2022-08-17T03:08:35.137Z,96468.78
2022-08-17T03:11:02.314Z,96484.84
2022-08-17T03:13:29.334Z,96477.78
2022-08-17T03:15:58.072Z,96472.03
2022-08-17T03:18:26.218Z,96466.63
2022-08-17T03:20:54.665Z,96460.84
2022-08-17T03:23:24.143Z,96461.00
2022-08-17T03:25:54.093Z,96457.00
2022-08-17T03:28:21.910Z,96466.25
2022-08-17T03:30:50.719Z,96454.22
2022-08-17T03:33:19.627Z,96456.84
2022-08-17T03:35:47.133Z,96460.16
2022-08-17T03:38:15.081Z,96460.28
2022-08-17T03:40:56.909Z,96466.53
2022-08-17T03:43:26.809Z,96458.97
2022-08-17T03:45:54.000Z,96467.81
2022-08-17T03:48:22.707Z,96460.06
2022-08-17T03:50:50.080Z,96463.50
2022-08-17T03:53:17.955Z,96454.81
2022-08-17T03:55:45.040Z,96459.69
2022-08-17T03:58:12.140Z,96462.47
2022-08-17T04:00:39.844Z,96468.41
2022-08-17T04:03:07.127Z,96466.44
2022-08-17T04:05:37.949Z,96461.03
2022-08-17T04:08:06.168Z,96463.97
2022-08-17T04:10:34.535Z,96457.88
2022-08-17T04:13:12.189Z,96470.06
2022-08-17T04:15:39.717Z,96475.97
2022-08-17T04:18:07.617Z,96473.50
2022-08-17T04:20:39.516Z,96471.53
2022-08-17T04:23:10.213Z,96474.31
2022-08-17T04:25:44.569Z,96467.44
2022-08-17T04:28:16.146Z,96475.31
2022-08-17T04:30:45.308Z,96481.53
2022-08-17T04:33:19.723Z,96480.56
2022-08-17T04:35:50.832Z,96479.44
2022-08-17T04:38:20.689Z,96482.34
2022-08-17T04:40:48.515Z,96477.25
2022-08-17T04:43:18.859Z,96476.28
2022-08-17T04:45:55.342Z,96484.53
2022-08-17T04:48:29.647Z,96476.50
2022-08-17T04:51:09.837Z,96484.78
2022-08-17T04:53:38.453Z,96481.88
2022-08-17T04:56:06.819Z,96481.56
2022-08-17T04:58:34.488Z,96486.53
2022-08-17T05:01:01.779Z,96484.25
2022-08-17T05:03:29.362Z,96490.34
2022-08-17T05:05:56.780Z,96497.41
2022-08-17T05:08:25.470Z,96492.50
2022-08-17T05:10:53.097Z,96493.88
2022-08-17T05:13:22.343Z,96501.59
2022-08-17T05:15:53.551Z,96499.81
2022-08-17T05:18:21.416Z,96505.28
2022-08-17T05:20:52.670Z,96501.22
2022-08-17T05:23:22.782Z,96509.47
2022-08-17T05:25:54.109Z,96507.75
2022-08-17T05:28:24.187Z,96503.56
2022-08-17T05:30:56.076Z,96503.13
2022-08-17T05:33:26.008Z,96502.53
2022-08-17T05:35:55.806Z,96500.91
2022-08-17T05:38:25.420Z,96499.34
2022-08-17T05:40:55.059Z,96495.28
2022-08-17T05:43:24.046Z,96501.72
2022-08-17T05:45:58.079Z,96496.28
2022-08-17T05:48:36.741Z,96510.34
2022-08-17T05:51:32.709Z,96499.19
2022-08-17T05:54:15.910Z,96502.97
2022-08-17T05:57:09.156Z,96505.53
2022-08-17T05:59:46.980Z,96506.38
2022-08-17T06:02:23.190Z,96506.44
2022-08-17T06:05:10.886Z,96506.63
2022-08-17T06:07:48.366Z,96516.22
2022-08-17T06:10:24.534Z,96513.47
2022-08-17T06:13:05.684Z,96513.53
2022-08-17T06:15:44.015Z,96507.28
2022-08-17T06:18:14.816Z,96505.66
2022-08-17T06:20:50.968Z,96496.63
2022-08-17T06:23:26.967Z,96490.41
2022-08-17T06:25:59.406Z,96490.41
2022-08-17T06:28:34.505Z,96490.09
2022-08-17T06:31:09.930Z,96492.56
2022-08-17T06:33:38.108Z,96490.09
2022-08-17T06:36:17.400Z,96487.47
2022-08-17T06:38:55.237Z,96496.22
2022-08-17T06:41:29.120Z,96497.88
2022-08-17T06:44:09.147Z,96491.94
2022-08-17T06:46:39.280Z,96488.31
2022-08-17T06:49:19.091Z,96489.59
2022-08-17T06:51:52.134Z,96492.72
2022-08-17T06:54:26.064Z,96487.09
2022-08-17T06:56:59.230Z,96489.53
2022-08-17T06:59:36.271Z,96482.56
2022-08-17T07:02:29.043Z,96488.50
2022-08-17T07:05:17.492Z,96477.25
2022-08-17T07:07:59.810Z,96480.84
2022-08-17T07:10:29.661Z,96480.81
2022-08-17T07:13:03.537Z,96473.84
2022-08-17T07:15:41.288Z,96483.38
2022-08-17T07:18:09.494Z,96482.34
2022-08-17T07:20:42.218Z,96484.75
2022-08-17T07:23:20.602Z,96478.94
2022-08-17T07:25:49.536Z,96481.69
2022-08-17T07:28:21.614Z,96481.00
2022-08-17T07:30:54.039Z,96488.75
2022-08-17T07:33:24.499Z,96483.56
2022-08-17T07:35:53.497Z,96485.84
2022-08-17T07:38:25.859Z,96474.47
2022-08-17T07:41:02.762Z,96481.00
2022-08-17T07:43:32.642Z,96487.41
2022-08-17T07:46:11.605Z,96488.63
2022-08-17T07:48:41.142Z,96482.44
2022-08-17T07:51:17.677Z,96477.75
2022-08-17T07:53:45.561Z,96482.44
2022-08-17T07:56:32.517Z,96487.69
2022-08-17T07:59:12.203Z,96475.34
2022-08-17T08:01:47.239Z,96485.31
2022-08-17T08:07:26.705Z,96493.44
2022-08-17T08:10:03.755Z,96485.19
2022-08-17T08:12:34.234Z,96499.53
2022-08-17T08:15:11.539Z,96498.44
2022-08-17T08:17:52.186Z,96496.50
2022-08-17T08:20:51.485Z,96497.84
2022-08-17T08:23:20.625Z,96509.66
2022-08-17T08:25:59.919Z,96507.31
2022-08-17T08:28:33.467Z,96509.03
2022-08-17T08:31:09.123Z,96505.06
2022-08-17T08:33:48.199Z,96503.69
2022-08-17T08:37:12.690Z,96508.03
2022-08-17T08:39:20.900Z,96510.19
2022-08-17T08:41:58.510Z,96499.22
2022-08-17T08:45:00.923Z,96501.03
2022-08-17T08:47:49.310Z,96504.16
2022-08-17T08:50:37.017Z,96500.75
2022-08-17T08:53:18.546Z,96504.91
2022-08-17T08:55:52.331Z,96510.72
2022-08-17T08:58:31.732Z,96507.09
2022-08-17T09:01:17.556Z,96519.81
2022-08-17T09:04:24.638Z,96512.97
2022-08-17T09:07:03.152Z,96507.31
2022-08-17T09:09:42.721Z,96513.44
2022-08-17T09:12:15.886Z,96520.84
2022-08-17T09:14:54.735Z,96515.97
2022-08-17T09:17:35.814Z,96515.41
2022-08-17T09:20:11.400Z,96522.19
2022-08-17T09:23:00.999Z,96511.94
2022-08-17T09:25:36.832Z,96513.19
2022-08-17T09:28:07.229Z,96501.13
2022-08-17T09:30:44.017Z,96504.25
2022-08-17T09:33:15.629Z,96506.72
2022-08-17T09:35:47.363Z,96507.97
2022-08-17T09:38:25.606Z,96507.16
2022-08-17T09:41:02.701Z,96495.47
2022-08-17T09:43:39.083Z,96486.47
2022-08-17T09:46:12.013Z,96492.63
2022-08-17T09:48:44.392Z,96492.81
2022-08-17T09:51:18.509Z,96487.28
2022-08-17T09:53:47.330Z,96481.38
2022-08-17T09:56:35.137Z,96478.50
2022-08-17T09:59:22.277Z,96486.69
2022-08-17T10:01:59.864Z,96479.06
2022-08-17T10:04:39.369Z,96482.94
2022-08-17T10:07:14.726Z,96470.63
2022-08-17T10:09:57.304Z,96468.72
2022-08-17T10:12:33.627Z,96471.19
2022-08-17T10:15:15.371Z,96464.78
2022-08-17T10:18:03.927Z,96467.25
2022-08-17T10:20:36.981Z,96457.97
2022-08-17T10:23:09.925Z,96460.97
2022-08-17T10:25:55.246Z,96456.59
2022-08-17T10:28:29.718Z,96449.94
2022-08-17T10:31:33.187Z,96453.59
2022-08-17T10:34:05.423Z,96451.44
2022-08-17T10:36:41.718Z,96459.75
2022-08-17T10:39:23.159Z,96458.50
2022-08-17T10:41:58.243Z,96463.63
2022-08-17T10:44:38.381Z,96461.50
2022-08-17T10:47:09.805Z,96464.78
2022-08-17T10:49:38.642Z,96459.59
2022-08-17T10:52:44.275Z,96455.00
2022-08-17T10:55:16.033Z,96465.03
2022-08-17T10:57:47.829Z,96464.13
2022-08-17T11:00:58.351Z,96454.56
2022-08-17T11:03:26.869Z,96443.56
2022-08-17T11:06:07.227Z,96446.84
2022-08-17T11:09:10.253Z,96443.88
2022-08-17T11:12:14.434Z,96438.22
2022-08-17T11:14:59.706Z,96426.69
2022-08-17T11:17:59.430Z,96420.59
2022-08-17T11:20:57.145Z,96431.00
2022-08-17T11:23:47.079Z,96429.88
2022-08-17T11:26:23.773Z,96419.09
2022-08-17T11:28:53.031Z,96421.81
2022-08-17T11:31:38.593Z,96423.13
2022-08-17T11:34:17.245Z,96412.56
2022-08-17T11:37:16.496Z,96409.69
2022-08-17T11:40:10.366Z,96404.72
2022-08-17T11:42:52.084Z,96413.13
2022-08-17T11:45:41.931Z,96415.91
2022-08-17T11:48:28.991Z,96408.47
2022-08-17T11:51:05.654Z,96404.63
2022-08-17T11:54:31.887Z,96405.91
2022-08-17T11:56:57.422Z,96404.31
2022-08-17T12:00:00.933Z,96398.84
2022-08-17T12:02:47.926Z,96404.56
2022-08-17T12:05:36.936Z,96395.38
2022-08-17T12:08:14.417Z,96397.94
2022-08-17T12:11:03.914Z,96392.44
2022-08-17T12:13:39.727Z,96410.16
2022-08-17T12:16:08.643Z,96399.69
2022-08-17T12:18:38.117Z,96386.50
2022-08-17T12:21:28.182Z,96399.31
2022-08-17T12:24:01.824Z,96391.59
2022-08-17T12:26:31.846Z,96392.88
2022-08-17T12:29:02.257Z,96393.78
2022-08-17T12:31:34.249Z,96400.66
2022-08-17T12:34:03.086Z,96397.03
2022-08-17T12:36:34.225Z,96387.25
2022-08-17T12:39:14.582Z,96392.03
2022-08-17T12:41:52.322Z,96397.28
2022-08-17T12:44:22.288Z,96384.75
2022-08-17T12:46:54.184Z,96385.59
2022-08-17T12:49:27.196Z,96399.25
2022-08-17T12:52:13.416Z,96393.72
2022-08-17T12:54:53.145Z,96391.53
2022-08-17T12:57:23.411Z,96386.16
2022-08-17T12:59:55.118Z,96381.78
2022-08-17T13:02:31.663Z,96381.25
2022-08-17T13:05:01.492Z,96382.97
2022-08-17T13:07:40.010Z,96384.59
2022-08-17T13:10:07.380Z,96395.03
2022-08-17T13:12:35.836Z,96387.53
2022-08-17T13:15:03.837Z,96375.81
2022-08-17T13:17:35.862Z,96384.66
2022-08-17T13:20:13.361Z,96370.50
2022-08-17T13:22:42.180Z,96365.38
2022-08-17T13:25:16.662Z,96374.59
2022-08-17T13:27:45.848Z,96372.63
2022-08-17T13:30:13.332Z,96369.78
2022-08-17T13:32:44.024Z,96372.03
2022-08-17T13:35:40.585Z,96370.03
2022-08-17T13:38:13.620Z,96366.34
2022-08-17T13:40:44.866Z,96366.25
2022-08-17T13:43:13.240Z,96364.47
2022-08-17T13:46:07.500Z,96372.78
2022-08-17T13:48:35.079Z,96359.34
2022-08-17T13:51:28.749Z,96354.44
2022-08-17T13:54:02.380Z,96351.75
2022-08-17T13:56:49.240Z,96357.44
2022-08-17T13:59:52.749Z,96358.19
2022-08-17T14:02:18.862Z,96360.16
2022-08-17T14:04:47.572Z,96355.59
2022-08-17T14:07:30.962Z,96359.09
2022-08-17T14:10:05.521Z,96353.47
2022-08-17T14:12:35.060Z,96357.56
2022-08-17T14:15:03.224Z,96350.34
2022-08-17T14:17:34.997Z,96357.19
2022-08-17T14:20:08.152Z,96355.06
2022-08-17T14:22:38.592Z,96352.78
2022-08-17T14:25:10.672Z,96355.59
2022-08-17T14:27:51.776Z,96360.63
2022-08-17T14:30:23.024Z,96349.09
2022-08-17T14:32:50.599Z,96350.59
2022-08-17T14:35:20.628Z,96345.91
2022-08-17T14:37:48.641Z,96343.06
2022-08-17T14:40:17.930Z,96332.88
2022-08-17T14:42:46.022Z,96331.22
2022-08-17T14:45:29.716Z,96339.03
2022-08-17T14:48:02.151Z,96339.03
2022-08-17T14:50:29.461Z,96336.09
2022-08-17T14:52:59.172Z,96332.06
2022-08-17T14:55:30.440Z,96333.16
2022-08-17T14:57:57.601Z,96342.38
2022-08-17T15:00:24.849Z,96325.44
2022-08-17T15:02:54.930Z,96326.47
2022-08-17T15:05:24.404Z,96323.53
2022-08-17T15:07:51.991Z,96324.28
2022-08-17T15:10:20.006Z,96326.69
2022-08-17T15:12:48.796Z,96321.56
2022-08-17T15:15:17.598Z,96311.19
2022-08-17T15:17:45.993Z,96325.09
2022-08-17T15:20:15.730Z,96320.97
2022-08-17T15:22:44.034Z,96323.88
2022-08-17T15:25:13.623Z,96339.53
2022-08-17T15:27:40.973Z,96327.63
2022-08-17T15:30:13.343Z,96338.63
2022-08-17T15:32:50.709Z,96328.38
2022-08-17T15:35:22.111Z,96334.50
2022-08-17T15:37:57.308Z,96332.06
2022-08-17T15:40:24.625Z,96325.31
2022-08-17T15:42:52.029Z,96330.56
2022-08-17T15:45:23.732Z,96333.50
2022-08-17T15:47:51.337Z,96337.19
2022-08-17T15:50:19.542Z,96329.22
2022-08-17T15:52:46.897Z,96332.66
2022-08-17T15:55:15.688Z,96329.66
2022-08-17T15:57:43.178Z,96334.91
2022-08-17T16:00:11.177Z,96325.97
2022-08-17T16:03:46.345Z,96330.75
2022-08-17T16:05:28.408Z,96324.03
2022-08-17T16:07:59.200Z,96312.94
2022-08-17T16:10:35.187Z,96320.38
2022-08-17T16:13:04.035Z,96323.25
2022-08-17T16:15:32.453Z,96312.16
2022-08-17T16:18:00.849Z,96326.09
2022-08-17T16:20:28.307Z,96322.28
2022-08-17T16:22:55.923Z,96316.56
2022-08-17T16:25:52.015Z,96312.75
2022-08-17T16:28:14.231Z,96315.31
2022-08-17T16:30:42.450Z,96323.53
2022-08-17T16:33:12.033Z,96311.69
2022-08-17T16:35:39.465Z,96331.66
2022-08-17T16:38:07.254Z,96315.44
2022-08-17T16:40:35.706Z,96314.81
2022-08-17T16:43:04.182Z,96314.81
2022-08-17T16:45:32.258Z,96324.13
2022-08-17T16:47:59.530Z,96310.84
2022-08-17T16:50:28.282Z,96310.97
2022-08-17T16:53:03.236Z,96308.91
2022-08-17T16:55:30.997Z,96299.38
2022-08-17T16:57:58.692Z,96305.91
2022-08-17T17:00:27.679Z,96312.00
2022-08-17T17:02:55.534Z,96311.81
2022-08-17T17:05:51.424Z,96324.03
2022-08-17T17:08:29.278Z,96314.13
2022-08-17T17:10:57.541Z,96317.97
2022-08-17T17:13:31.899Z,96315.53
2022-08-17T17:16:06.130Z,96310.03
2022-08-17T17:18:41.301Z,96311.91
2022-08-17T17:21:16.589Z,96317.97
2022-08-17T17:23:53.736Z,96319.16
2022-08-17T17:26:44.921Z,96322.41
2022-08-17T17:29:26.293Z,96329.50
2022-08-17T17:32:03.186Z,96327.84
2022-08-17T17:34:34.136Z,96324.69
2022-08-17T17:37:07.841Z,96327.69
2022-08-17T17:39:40.993Z,96324.19
2022-08-17T17:42:14.642Z,96323.00
2022-08-17T17:44:51.397Z,96327.25
2022-08-17T17:47:18.476Z,96327.28
2022-08-17T17:49:47.461Z,96322.09
2022-08-17T17:52:26.138Z,96312.03
2022-08-17T17:55:02.885Z,96327.41
2022-08-17T17:57:42.175Z,96317.63
2022-08-17T18:00:14.837Z,96324.41
2022-08-17T18:02:53.953Z,96322.91
2022-08-17T18:05:38.208Z,96319.34
2022-08-17T18:08:18.721Z,96322.13
2022-08-17T18:10:51.300Z,96320.91
2022-08-17T18:13:28.199Z,96335.34
2022-08-17T18:15:56.973Z,96325.78
2022-08-17T18:18:31.456Z,96324.91
2022-08-17T18:21:01.803Z,96326.06
2022-08-17T18:23:30.380Z,96325.06
2022-08-17T18:25:58.125Z,96326.78
2022-08-17T18:28:28.016Z,96330.34
2022-08-17T18:31:11.520Z,96331.03
2022-08-17T18:33:39.747Z,96331.88
2022-08-17T18:36:07.658Z,96327.13
2022-08-17T18:38:40.134Z,96340.72
2022-08-17T18:41:21.784Z,96329.06
2022-08-17T18:44:01.114Z,96330.28
2022-08-17T18:46:31.465Z,96326.41
2022-08-17T18:49:06.152Z,96323.53
2022-08-17T18:51:40.548Z,96317.81
2022-08-17T18:54:18.974Z,96322.16
2022-08-17T18:56:52.088Z,96317.06
2022-08-17T18:59:33.322Z,96314.63
2022-08-17T19:02:23.130Z,96313.78
2022-08-17T19:05:10.902Z,96311.78
2022-08-17T19:07:40.139Z,96311.75
2022-08-17T19:10:31.772Z,96310.31
2022-08-17T19:13:04.541Z,96316.44
2022-08-17T19:15:45.413Z,96311.75
2022-08-17T19:18:36.838Z,96319.13
2022-08-17T19:21:08.037Z,96312.13
2022-08-17T19:23:40.584Z,96319.50
2022-08-17T19:26:53.398Z,96323.38
2022-08-17T19:29:22.569Z,96322.75
2022-08-17T19:31:50.234Z,96319.22
2022-08-17T19:34:33.161Z,96304.28
2022-08-17T19:37:06.988Z,96321.63
2022-08-17T19:39:40.067Z,96328.34
2022-08-17T19:42:14.743Z,96327.72
2022-08-17T19:44:55.061Z,96328.13
2022-08-17T19:47:53.253Z,96334.84
2022-08-17T19:50:22.719Z,96335.41
2022-08-17T19:52:56.777Z,96360.09
2022-08-17T19:55:30.780Z,96373.53
2022-08-17T19:58:07.526Z,96377.38
2022-08-17T20:00:39.988Z,96384.00
2022-08-17T20:03:16.652Z,96396.59
2022-08-17T20:06:11.502Z,96399.44
2022-08-17T20:08:39.809Z,96407.56
2022-08-17T20:11:10.894Z,96405.47
2022-08-17T20:13:43.988Z,96414.81
2022-08-17T20:16:12.187Z,96411.56
2022-08-17T20:18:52.172Z,96422.16
2022-08-17T20:21:24.729Z,96420.47
2022-08-17T20:23:56.563Z,96424.13
2022-08-17T20:26:27.716Z,96421.47
2022-08-17T20:29:36.890Z,96426.72
2022-08-17T20:32:19.317Z,96428.09
2022-08-17T20:34:47.961Z,96422.56
2022-08-17T20:37:31.939Z,96430.06
2022-08-17T20:40:34.415Z,96420.66
2022-08-17T20:43:47.591Z,96421.94
2022-08-17T20:46:25.479Z,96441.69
2022-08-17T20:48:57.051Z,96437.13
2022-08-17T20:51:31.493Z,96440.53
2022-08-17T20:54:06.899Z,96439.47
2022-08-17T20:56:49.407Z,96436.16
2022-08-17T20:59:57.609Z,96445.06
2022-08-17T21:02:29.326Z,96431.53
2022-08-17T21:05:07.237Z,96437.84
2022-08-17T21:07:55.278Z,96421.50
2022-08-17T21:10:36.742Z,96409.00
2022-08-17T21:13:44.488Z,96411.31
2022-08-17T21:16:31.189Z,96414.69
2022-08-17T21:19:12.482Z,96426.66
2022-08-17T21:21:49.641Z,96431.56
2022-08-17T21:24:31.213Z,96431.75
2022-08-17T21:27:09.286Z,96431.09
2022-08-17T21:29:52.755Z,96425.19
2022-08-17T21:32:29.565Z,96423.09
2022-08-17T21:35:44.137Z,96415.31
2022-08-17T21:38:15.190Z,96430.00
2022-08-17T21:40:46.106Z,96430.56
2022-08-17T21:43:22.508Z,96425.25
2022-08-17T21:45:58.937Z,96420.16
2022-08-17T21:48:27.351Z,96436.41
2022-08-17T21:51:02.322Z,96437.75
2022-08-17T21:53:40.031Z,96435.47
2022-08-17T21:56:08.529Z,96440.47
2022-08-17T21:58:38.540Z,96448.78
2022-08-17T22:01:20.274Z,96459.44
2022-08-17T22:03:55.989Z,96457.16
2022-08-17T22:06:28.481Z,96441.63
2022-08-17T22:09:06.127Z,96447.28
2022-08-17T22:11:52.833Z,96434.22
2022-08-17T22:14:20.979Z,96432.94
2022-08-17T22:16:48.752Z,96435.75
2022-08-17T22:19:16.008Z,96434.28
2022-08-17T22:21:45.172Z,96431.50
2022-08-17T22:24:19.709Z,96431.03
2022-08-17T22:27:04.015Z,96425.56
2022-08-17T22:29:56.922Z,96429.75
2022-08-17T22:32:35.547Z,96424.34
2022-08-17T22:35:31.052Z,96415.81
2022-08-17T22:38:26.401Z,96404.97
2022-08-17T22:40:56.358Z,96391.22
2022-08-17T22:43:26.935Z,96379.16
2022-08-17T22:45:58.642Z,96376.06
2022-08-17T22:48:29.295Z,96369.06
2022-08-17T22:51:12.617Z,96358.69
2022-08-17T22:53:50.003Z,96336.34
2022-08-17T22:56:25.338Z,96329.69
2022-08-17T22:58:58.758Z,96318.78
2022-08-17T23:01:29.308Z,96320.72
2022-08-17T23:03:58.886Z,96330.94
2022-08-17T23:06:26.941Z,96336.50
2022-08-17T23:08:57.145Z,96364.06
2022-08-17T23:11:36.923Z,96373.09
2022-08-17T23:14:13.901Z,96383.63
2022-08-17T23:16:41.433Z,96392.72
2022-08-17T23:19:08.831Z,96396.19
2022-08-17T23:21:37.275Z,96409.66
2022-08-17T23:24:07.889Z,96410.06
2022-08-17T23:26:36.382Z,96422.97
2022-08-17T23:29:03.982Z,96421.44
2022-08-17T23:31:31.326Z,96420.75
2022-08-17T23:33:58.901Z,96432.97
2022-08-17T23:36:26.400Z,96438.97
2022-08-17T23:38:54.228Z,96435.69
2022-08-17T23:41:33.638Z,96436.66
2022-08-17T23:44:01.702Z,96434.50
2022-08-17T23:46:29.280Z,96431.66
2022-08-17T23:48:56.582Z,96428.84
2022-08-17T23:51:28.292Z,96429.53
2022-08-17T23:54:07.176Z,96444.38
2022-08-17T23:56:37.325Z,96438.78
2022-08-17T23:59:04.826Z,96441.44
